createdAt,value
2022-08-22T00:02:24.438Z,66.97
2022-08-22T00:02:42.589Z,63.41
2022-08-22T00:03:07.176Z,65.30
2022-08-22T00:06:07.224Z,66.38
2022-08-22T00:09:35.689Z,66.92
2022-08-22T00:12:49.591Z,67.31
2022-08-22T00:16:16.281Z,67.04
2022-08-22T00:19:18.464Z,67.48
2022-08-22T00:22:39.195Z,66.80
2022-08-22T00:26:03.143Z,67.25
2022-08-22T00:29:09.247Z,67.22
2022-08-22T00:32:29.734Z,66.99
2022-08-22T00:35:42.910Z,67.46
2022-08-22T00:39:06.626Z,67.12
2022-08-22T00:42:32.157Z,66.59
2022-08-22T00:45:49.288Z,67.32
2022-08-22T00:48:58.219Z,67.51
2022-08-22T00:52:12.759Z,67.94
2022-08-22T00:55:53.741Z,67.73
2022-08-22T00:59:23.202Z,67.85
2022-08-22T01:02:53.445Z,66.77
2022-08-22T01:06:16.486Z,66.96
2022-08-22T01:10:04.198Z,67.63
2022-08-22T01:13:06.218Z,67.09
2022-08-22T01:16:16.926Z,67.35
2022-08-22T01:19:37.730Z,67.18
2022-08-22T01:22:54.825Z,67.50
2022-08-22T01:26:25.705Z,67.06
2022-08-22T01:29:36.259Z,66.61
2022-08-22T01:32:42.937Z,67.19
2022-08-22T01:36:21.518Z,67.33
2022-08-22T01:39:47.792Z,66.63
2022-08-22T01:43:09.205Z,67.12
2022-08-22T01:46:43.525Z,65.93
2022-08-22T01:49:56.205Z,66.84
2022-08-22T01:53:26.099Z,66.43
2022-08-22T01:56:42.947Z,66.44
2022-08-22T01:59:49.574Z,66.09
2022-08-22T02:03:02.238Z,66.09
2022-08-22T02:06:14.634Z,66.72
2022-08-22T02:09:32.718Z,67.28
2022-08-22T02:13:02.635Z,66.81
2022-08-22T02:16:18.876Z,66.18
2022-08-22T02:19:34.185Z,67.05
2022-08-22T02:22:58.071Z,67.04
2022-08-22T02:26:02.908Z,65.93
2022-08-22T02:29:11.539Z,67.21
2022-08-22T02:32:28.004Z,66.32
2022-08-22T02:35:42.494Z,66.40
2022-08-22T02:39:32.342Z,66.18
2022-08-22T02:42:50.321Z,66.23
2022-08-22T02:46:12.327Z,66.50
2022-08-22T02:49:23.255Z,66.12
2022-08-22T02:52:35.376Z,67.05
2022-08-22T02:56:22.451Z,67.21
2022-08-22T02:59:27.457Z,66.19
2022-08-22T03:02:42.252Z,66.74
2022-08-22T03:05:44.501Z,67.28
2022-08-22T03:09:14.926Z,67.00
2022-08-22T03:12:39.412Z,66.35
2022-08-22T03:15:59.640Z,67.13
2022-08-22T03:19:18.746Z,66.67
2022-08-22T03:22:24.052Z,66.64
2022-08-22T03:25:42.024Z,66.45
2022-08-22T03:28:59.956Z,66.59
2022-08-22T03:32:15.952Z,67.00
2022-08-22T03:35:54.039Z,66.79
2022-08-22T03:39:17.124Z,67.20
2022-08-22T03:42:29.102Z,67.31
2022-08-22T03:45:44.086Z,66.88
2022-08-22T03:48:57.132Z,67.02
2022-08-22T03:53:03.537Z,66.84
2022-08-22T03:56:24.327Z,66.70
2022-08-22T04:00:04.205Z,66.39
2022-08-22T04:03:55.248Z,66.94
2022-08-22T04:07:28.088Z,66.42
2022-08-22T04:10:51.837Z,66.75
2022-08-22T04:13:56.709Z,67.01
2022-08-22T04:17:04.581Z,65.98
2022-08-22T04:20:38.645Z,67.11
2022-08-22T04:24:02.805Z,67.29
2022-08-22T04:27:15.241Z,66.07
2022-08-22T04:30:23.555Z,67.41
2022-08-22T04:33:32.329Z,67.45
2022-08-22T04:36:50.795Z,67.13
2022-08-22T04:39:59.975Z,66.56
2022-08-22T04:43:15.566Z,66.51
2022-08-22T04:46:41.947Z,66.98
2022-08-22T04:49:51.978Z,66.87
2022-08-22T04:53:14.007Z,67.28
2022-08-22T04:56:16.043Z,67.80
2022-08-22T04:59:19.534Z,67.40
2022-08-22T05:02:27.821Z,68.15
2022-08-22T05:05:34.045Z,66.90
2022-08-22T05:08:39.849Z,66.51
2022-08-22T05:11:43.223Z,66.56
2022-08-22T05:14:56.309Z,67.04
2022-08-22T05:18:06.644Z,67.18
2022-08-22T05:21:13.975Z,67.43
2022-08-22T05:24:46.566Z,65.93
2022-08-22T05:27:56.256Z,66.89
2022-08-22T05:31:00.171Z,67.56
2022-08-22T05:34:11.599Z,67.34
2022-08-22T05:37:44.861Z,67.83
2022-08-22T05:40:58.852Z,69.52
2022-08-22T05:44:02.731Z,72.33
2022-08-22T05:47:04.847Z,75.98
2022-08-22T05:50:18.526Z,77.66
2022-08-22T05:53:39.048Z,74.73
2022-08-22T05:56:51.605Z,71.53
2022-08-22T06:00:01.186Z,70.37
2022-08-22T06:03:16.470Z,69.99
2022-08-22T06:06:20.443Z,69.44
2022-08-22T06:09:37.162Z,68.34
2022-08-22T06:12:45.293Z,68.37
2022-08-22T06:15:59.719Z,68.13
2022-08-22T06:19:04.908Z,67.92
2022-08-22T06:22:28.625Z,67.94
2022-08-22T06:25:39.045Z,67.80
2022-08-22T06:28:54.677Z,67.57
2022-08-22T06:32:02.556Z,67.72
2022-08-22T06:35:11.610Z,67.35
2022-08-22T06:38:15.276Z,67.24
2022-08-22T06:41:22.306Z,68.06
2022-08-22T06:44:30.223Z,67.53
2022-08-22T06:47:37.335Z,67.64
2022-08-22T06:50:43.838Z,67.68
2022-08-22T06:53:50.426Z,67.36
2022-08-22T06:56:55.703Z,67.30
2022-08-22T07:00:03.269Z,67.43
2022-08-22T07:03:20.563Z,67.27
2022-08-22T07:06:29.993Z,67.25
2022-08-22T07:09:35.658Z,67.57
2022-08-22T07:12:39.254Z,66.55
2022-08-22T07:15:43.004Z,66.79
2022-08-22T07:18:56.879Z,67.06
2022-08-22T07:22:01.556Z,66.81
2022-08-22T07:25:20.923Z,66.86
2022-08-22T07:28:51.520Z,66.87
2022-08-22T07:32:17.242Z,67.17
2022-08-22T07:35:20.895Z,66.26
2022-08-22T07:38:31.674Z,66.86
2022-08-22T07:41:48.142Z,66.09
2022-08-22T07:45:17.886Z,66.45
2022-08-22T07:49:08.983Z,66.71
2022-08-22T07:52:13.930Z,66.26
2022-08-22T07:55:20.746Z,66.30
2022-08-22T07:58:27.476Z,66.19
2022-08-22T08:01:30.177Z,65.79
2022-08-22T08:04:40.081Z,65.73
2022-08-22T08:07:45.737Z,65.65
2022-08-22T08:10:50.938Z,65.35
2022-08-22T08:13:57.995Z,65.43
2022-08-22T08:17:30.144Z,65.23
2022-08-22T08:20:38.945Z,65.08
2022-08-22T08:23:46.341Z,64.50
2022-08-22T08:27:12.755Z,64.24
2022-08-22T08:30:19.615Z,64.26
2022-08-22T08:33:26.972Z,64.08
2022-08-22T08:36:32.111Z,63.36
2022-08-22T08:39:39.445Z,62.90
2022-08-22T08:43:30.887Z,62.80
2022-08-22T08:46:55.674Z,62.86
2022-08-22T08:50:16.287Z,63.10
2022-08-22T08:53:43.365Z,62.84
2022-08-22T08:57:00.162Z,63.07
2022-08-22T09:00:12.373Z,63.03
2022-08-22T09:03:30.536Z,62.57
2022-08-22T09:07:01.168Z,63.73
2022-08-22T09:10:33.270Z,67.23
2022-08-22T09:14:07.018Z,68.41
2022-08-22T09:17:23.694Z,69.09
2022-08-22T09:20:56.022Z,69.36
2022-08-22T09:24:23.242Z,70.13
2022-08-22T09:27:49.827Z,70.96
2022-08-22T09:31:23.067Z,72.02
2022-08-22T09:34:56.774Z,72.42
2022-08-22T09:38:19.906Z,72.70
2022-08-22T09:41:53.260Z,73.52
2022-08-22T09:45:11.990Z,73.30
2022-08-22T09:48:34.774Z,73.77
2022-08-22T09:52:14.569Z,74.18
2022-08-22T09:55:40.046Z,74.46
2022-08-22T09:59:03.172Z,74.90
2022-08-22T10:02:16.997Z,75.28
2022-08-22T10:05:40.457Z,75.94
2022-08-22T10:09:05.484Z,76.28
2022-08-22T10:12:19.728Z,77.19
2022-08-22T10:15:39.363Z,78.11
2022-08-22T10:18:52.872Z,78.32
2022-08-22T10:22:39.535Z,78.99
2022-08-22T10:25:48.363Z,78.47
2022-08-22T10:29:16.416Z,74.58
2022-08-22T10:32:31.096Z,72.98
2022-08-22T10:35:51.914Z,71.65
2022-08-22T10:38:58.116Z,71.85
2022-08-22T10:42:28.165Z,72.32
2022-08-22T10:45:37.737Z,73.17
2022-08-22T10:48:58.730Z,73.81
2022-08-22T10:52:15.272Z,74.52
2022-08-22T10:55:28.268Z,75.07
2022-08-22T10:58:35.212Z,75.42
2022-08-22T11:01:53.643Z,75.64
2022-08-22T11:05:10.721Z,75.13
2022-08-22T11:08:34.775Z,75.09
2022-08-22T11:11:39.748Z,75.28
2022-08-22T11:14:59.695Z,74.45
2022-08-22T11:18:24.630Z,72.34
2022-08-22T11:21:54.466Z,71.79
2022-08-22T11:25:15.344Z,71.33
2022-08-22T11:28:55.356Z,71.24
2022-08-22T11:32:07.938Z,71.21
2022-08-22T11:35:35.575Z,70.20
2022-08-22T11:39:06.537Z,69.91
2022-08-22T11:42:49.814Z,71.50
2022-08-22T11:45:57.255Z,71.71
2022-08-22T11:49:13.315Z,71.61
2022-08-22T11:52:17.923Z,59.89
2022-08-22T11:55:41.330Z,59.20
2022-08-22T11:58:56.363Z,60.42
2022-08-22T12:02:08.965Z,64.93
2022-08-22T12:05:26.146Z,62.59
2022-08-22T12:08:37.052Z,61.51
2022-08-22T12:12:16.980Z,55.72
2022-08-22T12:15:37.468Z,59.82
2022-08-22T12:18:53.001Z,57.63
2022-08-22T12:22:28.886Z,55.48
2022-08-22T12:25:59.321Z,59.62
2022-08-22T12:29:45.076Z,57.96
2022-08-22T12:33:31.751Z,59.42
2022-08-22T12:37:03.649Z,60.25
2022-08-22T12:40:36.407Z,61.96
2022-08-22T12:43:42.822Z,58.58
2022-08-22T12:47:03.224Z,58.62
2022-08-22T12:50:25.229Z,61.48
2022-08-22T12:53:49.199Z,60.11
2022-08-22T12:56:52.275Z,59.94
2022-08-22T13:00:17.354Z,58.65
2022-08-22T13:03:32.515Z,55.25
2022-08-22T13:06:37.863Z,58.46
2022-08-22T13:09:46.254Z,55.40
2022-08-22T13:12:58.522Z,56.22
2022-08-22T13:16:07.503Z,54.02
2022-08-22T13:19:46.618Z,55.85
2022-08-22T13:22:49.300Z,53.93
2022-08-22T13:26:33.172Z,55.20
2022-08-22T13:29:47.050Z,54.54
2022-08-22T13:32:53.221Z,52.36
2022-08-22T13:36:01.230Z,51.97
2022-08-22T13:39:13.540Z,52.64
2022-08-22T13:42:30.031Z,52.41
2022-08-22T13:45:36.263Z,52.25
2022-08-22T13:48:51.480Z,53.09
2022-08-22T13:52:14.432Z,52.77
2022-08-22T13:55:35.397Z,52.41
2022-08-22T13:58:39.025Z,52.58
2022-08-22T14:02:07.823Z,53.39
2022-08-22T14:05:33.203Z,54.08
2022-08-22T14:08:45.722Z,53.31
2022-08-22T14:11:56.278Z,53.27
2022-08-22T14:15:03.548Z,54.47
2022-08-22T14:18:16.002Z,53.08
2022-08-22T14:21:40.632Z,54.58
2022-08-22T14:24:55.758Z,54.52
2022-08-22T14:28:09.479Z,53.99
2022-08-22T14:31:14.430Z,54.25
2022-08-22T14:34:17.575Z,55.92
2022-08-22T14:37:25.144Z,55.75
2022-08-22T14:40:35.571Z,56.26
2022-08-22T14:43:49.621Z,56.40
2022-08-22T14:46:59.518Z,57.03
2022-08-22T14:50:11.182Z,57.47
2022-08-22T14:53:25.220Z,57.85
2022-08-22T14:56:30.136Z,57.28
2022-08-22T14:59:35.165Z,57.78
2022-08-22T15:02:38.376Z,58.53
2022-08-22T15:05:46.451Z,58.19
2022-08-22T15:08:50.725Z,58.34
2022-08-22T15:11:53.400Z,58.44
2022-08-22T15:15:06.206Z,58.51
2022-08-22T15:18:19.144Z,58.59
2022-08-22T15:21:33.453Z,58.12
2022-08-22T15:24:56.346Z,59.09
2022-08-22T15:28:06.931Z,58.89
2022-08-22T15:31:19.021Z,58.61
2022-08-22T15:34:30.298Z,59.75
2022-08-22T15:37:35.575Z,58.88
2022-08-22T15:40:45.942Z,59.46
2022-08-22T15:44:09.336Z,59.22
2022-08-22T15:47:39.902Z,59.61
2022-08-22T15:51:05.016Z,59.72
2022-08-22T15:54:25.277Z,60.29
2022-08-22T15:57:35.906Z,59.92
2022-08-22T16:00:43.283Z,59.81
2022-08-22T16:04:05.149Z,59.42
2022-08-22T16:07:26.188Z,58.76
2022-08-22T16:10:40.128Z,60.49
2022-08-22T16:13:44.537Z,60.06
2022-08-22T16:17:03.855Z,60.45
2022-08-22T16:20:15.883Z,60.86
2022-08-22T16:23:25.100Z,61.23
2022-08-22T16:26:30.217Z,61.59
2022-08-22T16:29:42.313Z,62.96
2022-08-22T16:32:53.214Z,62.96
2022-08-22T16:36:17.633Z,63.16
2022-08-22T16:39:22.432Z,63.41
2022-08-22T16:42:44.196Z,63.72
2022-08-22T16:45:48.698Z,64.44
2022-08-22T16:49:01.424Z,64.82
2022-08-22T16:52:24.955Z,64.30
2022-08-22T16:55:30.481Z,64.42
2022-08-22T16:59:19.776Z,64.88
2022-08-22T17:02:46.272Z,64.98
2022-08-22T17:05:57.013Z,64.60
2022-08-22T17:09:17.535Z,65.52
2022-08-22T17:12:40.791Z,65.57
2022-08-22T17:15:48.603Z,66.63
2022-08-22T17:19:02.658Z,66.94
2022-08-22T17:22:37.596Z,66.87
2022-08-22T17:26:13.431Z,66.96
2022-08-22T17:29:42.098Z,67.52
2022-08-22T17:33:06.385Z,68.17
2022-08-22T17:36:34.187Z,68.21
2022-08-22T17:40:11.583Z,68.70
2022-08-22T17:43:52.354Z,68.77
2022-08-22T17:47:08.630Z,69.04
2022-08-22T17:50:16.419Z,68.99
2022-08-22T17:53:46.620Z,69.12
2022-08-22T17:57:11.540Z,69.37
2022-08-22T18:00:26.129Z,69.48
2022-08-22T18:03:32.875Z,69.94
2022-08-22T18:06:44.348Z,70.13
2022-08-22T18:09:58.871Z,70.10
2022-08-22T18:13:14.798Z,70.57
2022-08-22T18:16:38.703Z,69.31
2022-08-22T18:19:50.055Z,69.54
2022-08-22T18:22:57.633Z,69.52
2022-08-22T18:26:07.380Z,69.46
2022-08-22T18:29:18.706Z,69.20
2022-08-22T18:32:41.602Z,69.44
2022-08-22T18:36:22.973Z,69.91
2022-08-22T18:39:50.076Z,69.61
2022-08-22T18:43:00.253Z,69.87
2022-08-22T18:46:24.559Z,70.10
2022-08-22T18:49:26.607Z,70.87
2022-08-22T18:52:28.624Z,70.48
2022-08-22T18:55:56.578Z,71.51
2022-08-22T18:59:29.574Z,71.78
2022-08-22T19:03:01.192Z,72.50
2022-08-22T19:06:15.336Z,72.70
2022-08-22T19:09:45.126Z,72.30
2022-08-22T19:13:07.055Z,72.02
2022-08-22T19:16:26.499Z,72.42
2022-08-22T19:20:08.663Z,72.23
2022-08-22T19:23:50.606Z,71.22
2022-08-22T19:27:11.116Z,70.83
2022-08-22T19:30:34.882Z,71.70
2022-08-22T19:33:40.840Z,71.34
2022-08-22T19:36:45.810Z,70.84
2022-08-22T19:39:58.494Z,70.95
2022-08-22T19:43:16.337Z,70.85
2022-08-22T19:46:36.846Z,71.46
2022-08-22T19:49:43.907Z,71.16
2022-08-22T19:52:58.054Z,71.54
2022-08-22T19:56:22.875Z,71.03
2022-08-22T19:59:51.338Z,71.66
2022-08-22T20:03:02.086Z,71.52
2022-08-22T20:06:22.073Z,71.13
2022-08-22T20:09:58.600Z,72.00
2022-08-22T20:13:02.132Z,72.32
2022-08-22T20:16:17.817Z,74.01
2022-08-22T20:19:21.597Z,74.47
2022-08-22T20:22:32.836Z,74.46
2022-08-22T20:25:44.462Z,74.40
2022-08-22T20:28:52.420Z,74.99
2022-08-22T20:31:58.582Z,75.23
2022-08-22T20:35:04.361Z,75.20
2022-08-22T20:38:14.331Z,75.92
2022-08-22T20:41:36.819Z,75.76
2022-08-22T20:44:53.484Z,76.02
2022-08-22T20:47:57.577Z,75.00
2022-08-22T20:51:05.103Z,75.03
2022-08-22T20:54:20.458Z,74.70
2022-08-22T20:57:23.012Z,74.68
2022-08-22T21:00:31.845Z,75.68
2022-08-22T21:03:42.631Z,75.05
2022-08-22T21:06:45.488Z,75.96
2022-08-22T21:10:22.804Z,75.86
2022-08-22T21:13:25.142Z,75.93
2022-08-22T21:16:31.549Z,75.51
2022-08-22T21:19:33.927Z,76.07
2022-08-22T21:22:35.970Z,77.07
2022-08-22T21:26:06.159Z,76.36
2022-08-22T21:29:14.691Z,76.46
2022-08-22T21:32:22.657Z,76.53
2022-08-22T21:35:33.428Z,76.78
2022-08-22T21:38:35.760Z,75.70
2022-08-22T21:41:42.358Z,76.36
2022-08-22T21:44:59.145Z,76.14
2022-08-22T21:48:02.031Z,75.65
2022-08-22T21:51:29.539Z,76.74
2022-08-22T21:54:32.130Z,75.77
2022-08-22T21:57:36.094Z,76.21
2022-08-22T22:00:59.506Z,76.10
2022-08-22T22:04:01.786Z,76.72
2022-08-22T22:07:04.709Z,77.05
2022-08-22T22:10:16.602Z,76.77
2022-08-22T22:13:20.480Z,77.35
2022-08-22T22:16:28.302Z,77.53
2022-08-22T22:19:30.442Z,77.80
2022-08-22T22:22:32.696Z,76.69
2022-08-22T22:25:42.160Z,78.00
2022-08-22T22:28:50.477Z,77.13
2022-08-22T22:31:52.698Z,77.03
2022-08-22T22:34:55.385Z,77.55
2022-08-22T22:37:57.709Z,77.42
2022-08-22T22:41:00.144Z,76.75
2022-08-22T22:44:03.796Z,77.01
2022-08-22T22:47:06.435Z,76.67
2022-08-22T22:50:09.121Z,77.19
2022-08-22T22:53:12.767Z,77.92
2022-08-22T22:56:23.530Z,77.65
2022-08-22T22:59:26.461Z,78.27
2022-08-22T23:02:28.726Z,77.48
2022-08-22T23:05:31.913Z,77.95
2022-08-22T23:08:34.679Z,78.48
2022-08-22T23:11:36.976Z,77.78
2022-08-22T23:14:39.032Z,77.57
2022-08-22T23:17:42.476Z,78.60
2022-08-22T23:20:44.591Z,78.08
2022-08-22T23:23:46.971Z,78.00
2022-08-22T23:26:49.109Z,77.29
2022-08-22T23:29:51.375Z,77.76
2022-08-22T23:32:53.829Z,78.26
2022-08-22T23:35:59.899Z,78.17
2022-08-22T23:39:06.443Z,77.49
2022-08-22T23:42:10.156Z,77.18
2022-08-22T23:45:12.536Z,77.44
2022-08-22T23:48:14.601Z,76.15
2022-08-22T23:51:23.075Z,75.17
2022-08-22T23:54:26.387Z,74.92
2022-08-22T23:57:29.394Z,74.48
